Falken — SBCH — position and weather

sailwx.info

Track history (hours):
 
Tides and Currents Weather Stations Pressure Air Temp Water Temp Dewpoint Dewpoint Depression Visibility Wind Speed Wind Dir Waves Ship Positions

Falken (Sweden)

Last reported at 2014-Nov-22 13:29 UTC. Time now 2014-Dec-17 19:57 UTC.
Position N 35°44' W 008°42'.
Warning: this ship's position is 25 days out of date.

Length 40 m; draft 4.2 m.

Type: Sailing vessel. MMSI: 265070000.

Date/timePositionNaut miles runAvg speedWind from/ knotsBaromVisibWave heightAir tempDewpointWater temp
2014-Nov-22 13:29N 35°44' W 008°42'46 4.2
2014-Nov-22 02:32N 35°52' W 007°46'6 5.6
2014-Nov-22 01:32N 35°52' W 007°39'5 4.7
2014-Nov-22 00:26N 35°53' W 007°33'94 5.5
2014-Nov-21 07:13N 35°58' W 005°37'4 5.7
2014-Nov-21 06:33N 35°59' W 005°32'4 3.9
2014-Nov-21 05:33N 36°00' W 005°28'4 3.8
2014-Nov-21 04:34N 36°01' W 005°24'4 4.0
2014-Nov-21 03:32N 36°02' W 005°19'4 4.3
2014-Nov-21 02:33N 36°03' W 005°14'  
Track history (hours):
 
Tides and Currents Weather Stations Pressure Air Temp Water Temp Dewpoint Dewpoint Depression Visibility Wind Speed Wind Dir Waves Ship Positions

Falken (Sweden)

Last reported at 2014-Nov-22 13:29 UTC. Time now 2014-Dec-17 19:57 UTC.
Position N 35°44' W 008°42'.
Warning: this ship's position is 25 days out of date.

Length 40 m; draft 4.2 m.

Type: Sailing vessel. MMSI: 265070000.

Date/timePositionNaut miles runAvg speedWind from/ knotsBaromVisibWave heightAir tempDewpointWater temp
2014-Nov-22 13:29N 35°44' W 008°42'46 4.2
2014-Nov-22 02:32N 35°52' W 007°46'6 5.6
2014-Nov-22 01:32N 35°52' W 007°39'5 4.7
2014-Nov-22 00:26N 35°53' W 007°33'94 5.5
2014-Nov-21 07:13N 35°58' W 005°37'4 5.7
2014-Nov-21 06:33N 35°59' W 005°32'4 3.9
2014-Nov-21 05:33N 36°00' W 005°28'4 3.8
2014-Nov-21 04:34N 36°01' W 005°24'4 4.0
2014-Nov-21 03:32N 36°02' W 005°19'4 4.3
2014-Nov-21 02:33N 36°03' W 005°14'  

Dump ship's entire track history